createdAt,value
2019-01-29T00:01:50.294Z,85.20
2019-01-29T00:04:20.315Z,85.10
2019-01-29T00:09:46.970Z,84.80
2019-01-29T00:12:17.090Z,84.70
2019-01-29T00:14:47.211Z,84.40
2019-01-29T00:17:18.557Z,84.40
2019-01-29T00:19:48.676Z,84.10
2019-01-29T00:22:20.435Z,84.20
2019-01-29T00:24:50.277Z,84.00
2019-01-29T00:27:21.440Z,84.00
2019-01-29T00:29:51.321Z,83.90
2019-01-29T00:32:22.685Z,83.90
2019-01-29T00:37:45.624Z,84.00
2019-01-29T00:40:16.709Z,83.90
2019-01-29T00:42:46.913Z,84.00
2019-01-29T00:45:17.968Z,84.00
2019-01-29T00:47:48.622Z,83.80
2019-01-29T00:50:18.680Z,83.60
2019-01-29T00:52:48.905Z,83.30
2019-01-29T00:55:18.919Z,83.20
2019-01-29T00:57:49.242Z,83.30
2019-01-29T01:00:23.957Z,83.20
2019-01-29T01:02:55.626Z,83.00
2019-01-29T01:05:25.642Z,83.20
2019-01-29T01:07:55.968Z,83.40
2019-01-29T01:10:27.520Z,83.60
2019-01-29T01:12:58.205Z,83.70
2019-01-29T01:15:28.171Z,84.00
2019-01-29T01:17:58.599Z,84.50
2019-01-29T01:20:28.612Z,84.50
2019-01-29T01:22:58.732Z,84.60
2019-01-29T01:25:28.850Z,85.70
2019-01-29T01:30:56.232Z,86.90
2019-01-29T01:33:26.187Z,86.60
2019-01-29T01:35:58.205Z,86.30
2019-01-29T01:38:28.428Z,85.90
2019-01-29T01:40:58.547Z,85.40
2019-01-29T01:43:30.252Z,85.10
2019-01-29T01:46:01.346Z,84.90
2019-01-29T01:48:31.469Z,85.10
2019-01-29T01:51:01.482Z,85.40
2019-01-29T01:53:31.806Z,85.40
2019-01-29T01:56:02.952Z,85.10
2019-01-29T01:58:33.273Z,85.00
2019-01-29T02:01:03.495Z,85.40
2019-01-29T02:03:35.356Z,85.30
2019-01-29T02:06:06.602Z,85.10
2019-01-29T02:08:36.926Z,84.80
2019-01-29T02:11:06.958Z,84.90
2019-01-29T02:13:37.062Z,84.90
2019-01-29T02:16:08.231Z,84.70
2019-01-29T02:18:38.355Z,84.80
2019-01-29T02:21:08.405Z,85.30
2019-01-29T02:23:38.504Z,84.20
2019-01-29T02:26:11.142Z,84.50
2019-01-29T02:28:41.505Z,84.40
2019-01-29T02:31:32.475Z,84.30
2019-01-29T02:34:02.765Z,84.20
2019-01-29T02:36:34.902Z,84.00
2019-01-29T02:39:07.206Z,84.10
2019-01-29T02:41:38.430Z,84.20
2019-01-29T02:44:11.881Z,84.20
2019-01-29T02:46:43.228Z,83.70
2019-01-29T02:52:10.602Z,83.80
2019-01-29T02:54:41.030Z,83.60
2019-01-29T02:57:13.809Z,83.80
2019-01-29T02:59:45.567Z,84.10
2019-01-29T03:02:15.508Z,84.20
2019-01-29T03:04:45.603Z,84.10
2019-01-29T03:07:16.992Z,83.60
2019-01-29T03:09:48.741Z,83.10
2019-01-29T03:12:18.802Z,82.70
2019-01-29T03:14:48.950Z,82.20
2019-01-29T03:17:21.627Z,82.00
2019-01-29T03:19:51.939Z,81.70
2019-01-29T03:22:21.970Z,82.40
2019-01-29T03:27:31.972Z,81.80
2019-01-29T03:30:02.363Z,81.60
2019-01-29T03:32:32.482Z,81.60
2019-01-29T03:35:02.730Z,81.60
2019-01-29T03:37:44.393Z,81.70
2019-01-29T03:40:17.012Z,81.50
2019-01-29T03:42:46.892Z,81.10
2019-01-29T03:45:17.576Z,81.20
2019-01-29T03:47:47.568Z,81.40
2019-01-29T03:50:22.515Z,81.50
2019-01-29T03:52:52.485Z,81.90
2019-01-29T03:55:23.107Z,82.10
2019-01-29T03:57:54.667Z,81.80
2019-01-29T04:00:26.657Z,81.70
2019-01-29T04:02:56.646Z,81.80
2019-01-29T04:05:26.770Z,81.80
2019-01-29T04:07:56.784Z,81.70
2019-01-29T04:10:28.542Z,81.00
2019-01-29T04:12:59.993Z,81.60
2019-01-29T04:15:30.216Z,81.40
2019-01-29T04:18:00.236Z,81.70
2019-01-29T04:20:31.893Z,81.20
2019-01-29T04:23:02.014Z,81.40
2019-01-29T04:25:32.332Z,81.30
2019-01-29T04:28:02.348Z,81.50
2019-01-29T04:30:32.572Z,81.50
2019-01-29T04:33:04.228Z,81.80
2019-01-29T04:35:34.345Z,81.50
2019-01-29T04:38:04.367Z,82.30
2019-01-29T04:40:34.895Z,81.70
2019-01-29T04:43:05.013Z,81.70
2019-01-29T04:45:35.234Z,82.30
2019-01-29T04:48:05.152Z,81.80
2019-01-29T04:50:35.677Z,81.60
2019-01-29T04:53:17.748Z,81.70
2019-01-29T04:55:48.920Z,81.50
2019-01-29T04:58:19.042Z,81.10
2019-01-29T05:00:49.261Z,81.10
2019-01-29T05:03:19.277Z,81.10
2019-01-29T05:05:50.558Z,81.10
2019-01-29T05:08:20.540Z,81.30
2019-01-29T05:10:50.559Z,81.20
2019-01-29T05:13:22.213Z,81.10
2019-01-29T05:15:53.843Z,80.80
2019-01-29T05:18:21.221Z,80.70
2019-01-29T05:20:51.361Z,80.60
2019-01-29T05:23:21.564Z,80.50
2019-01-29T05:25:52.708Z,80.60
2019-01-29T05:28:23.133Z,80.60
2019-01-29T05:30:53.457Z,80.60
2019-01-29T05:33:23.679Z,80.70
2019-01-29T05:35:54.745Z,80.00
2019-01-29T05:38:26.206Z,80.90
2019-01-29T05:40:56.290Z,80.40
2019-01-29T05:43:26.410Z,80.50
2019-01-29T05:45:58.577Z,80.50
2019-01-29T05:48:28.806Z,80.60
2019-01-29T05:51:00.455Z,81.60
2019-01-29T05:53:30.778Z,81.00
2019-01-29T05:56:02.026Z,80.90
2019-01-29T05:58:32.046Z,81.00
2019-01-29T06:01:02.298Z,80.60
2019-01-29T06:03:32.587Z,80.50
2019-01-29T06:06:04.043Z,80.50
2019-01-29T06:08:34.157Z,80.40
2019-01-29T06:11:04.584Z,80.50
2019-01-29T06:13:34.707Z,80.50
2019-01-29T06:16:05.949Z,80.80
2019-01-29T06:18:36.070Z,81.30
2019-01-29T06:21:06.194Z,81.00
2019-01-29T06:23:36.205Z,81.30
2019-01-29T06:26:09.090Z,81.60
2019-01-29T06:28:40.577Z,81.80
2019-01-29T06:31:10.864Z,81.70
2019-01-29T06:33:41.077Z,82.00
2019-01-29T06:36:12.331Z,81.90
2019-01-29T06:38:43.475Z,82.10
2019-01-29T06:41:13.799Z,81.50
2019-01-29T06:43:43.860Z,81.70
2019-01-29T06:46:15.062Z,81.60
2019-01-29T06:48:45.213Z,81.70
2019-01-29T06:51:15.710Z,81.20
2019-01-29T06:53:46.001Z,81.30
2019-01-29T06:56:18.326Z,80.90
2019-01-29T06:58:48.527Z,80.90
2019-01-29T07:01:18.877Z,80.60
2019-01-29T07:03:49.893Z,80.30
2019-01-29T07:06:21.137Z,78.40
2019-01-29T07:08:51.153Z,76.00
2019-01-29T07:11:21.478Z,72.80
2019-01-29T07:13:51.598Z,69.60
2019-01-29T07:16:27.175Z,66.30
2019-01-29T07:18:58.802Z,62.80
2019-01-29T07:21:29.025Z,59.40
2019-01-29T07:24:00.680Z,56.90
2019-01-29T07:26:32.025Z,54.40
2019-01-29T07:29:02.042Z,51.90
2019-01-29T07:31:32.572Z,50.70
2019-01-29T07:34:02.793Z,49.00
2019-01-29T07:36:34.041Z,48.40
2019-01-29T07:39:08.264Z,48.90
2019-01-29T07:41:38.374Z,48.40
2019-01-29T07:44:11.948Z,48.10
2019-01-29T07:46:43.119Z,48.10
2019-01-29T07:49:16.414Z,48.70
2019-01-29T07:51:46.535Z,49.00
2019-01-29T07:54:16.679Z,49.20
2019-01-29T07:56:52.300Z,49.30
2019-01-29T07:59:32.433Z,49.20
2019-01-29T08:01:54.178Z,49.10
2019-01-29T08:04:24.297Z,49.10
2019-01-29T08:06:56.465Z,49.00
2019-01-29T08:09:26.481Z,48.90
2019-01-29T08:11:56.601Z,49.60
2019-01-29T08:14:28.463Z,49.90
2019-01-29T08:17:00.117Z,50.00
2019-01-29T08:19:30.134Z,49.60
2019-01-29T08:22:00.493Z,49.50
2019-01-29T08:24:30.666Z,49.10
2019-01-29T08:27:01.823Z,47.90
2019-01-29T08:29:44.786Z,45.60
2019-01-29T08:32:17.115Z,42.00
2019-01-29T08:34:47.644Z,38.30
2019-01-29T08:37:20.527Z,35.00
2019-01-29T08:39:53.617Z,32.90
2019-01-29T08:42:24.454Z,30.60
2019-01-29T08:44:55.087Z,28.90
2019-01-29T08:47:28.509Z,27.50
2019-01-29T08:49:58.916Z,26.40
2019-01-29T08:52:29.360Z,26.00
2019-01-29T08:54:59.739Z,25.40
2019-01-29T08:57:31.287Z,24.30
2019-01-29T09:02:48.148Z,23.70
2019-01-29T09:05:18.729Z,22.00
2019-01-29T09:07:49.196Z,22.60
2019-01-29T09:10:21.594Z,23.00
2019-01-29T09:12:52.055Z,21.70
2019-01-29T09:15:22.509Z,21.60
2019-01-29T09:17:52.968Z,21.20
2019-01-29T09:20:23.810Z,21.20
2019-01-29T09:22:54.284Z,20.80
2019-01-29T09:25:24.741Z,20.30
2019-01-29T09:27:55.528Z,19.70
2019-01-29T09:30:25.880Z,19.70
2019-01-29T09:32:56.413Z,19.30
2019-01-29T09:35:26.851Z,18.80
2019-01-29T09:37:57.570Z,19.10
2019-01-29T09:40:28.966Z,18.30
2019-01-29T09:42:59.535Z,17.90
2019-01-29T09:45:29.905Z,18.40
2019-01-29T09:48:00.378Z,18.50
2019-01-29T09:50:30.814Z,18.40
2019-01-29T09:53:01.325Z,18.40
2019-01-29T09:55:31.805Z,19.00
2019-01-29T09:58:02.372Z,18.70
2019-01-29T10:00:35.180Z,18.80
2019-01-29T10:03:06.127Z,19.00
2019-01-29T10:05:36.697Z,19.20
2019-01-29T10:08:07.281Z,19.50
2019-01-29T10:10:37.759Z,19.70
2019-01-29T10:13:08.352Z,20.80
2019-01-29T10:15:38.824Z,21.80
2019-01-29T10:18:09.402Z,23.30
2019-01-29T10:20:39.887Z,26.50
2019-01-29T10:23:10.478Z,28.40
2019-01-29T10:25:42.101Z,31.90
2019-01-29T10:28:12.711Z,32.00
2019-01-29T10:30:43.179Z,34.70
2019-01-29T10:33:13.819Z,36.90
2019-01-29T10:35:56.912Z,38.90
2019-01-29T10:38:27.453Z,41.90
2019-01-29T10:40:58.805Z,45.00
2019-01-29T10:43:28.771Z,44.20
2019-01-29T10:45:59.661Z,44.30
2019-01-29T10:48:29.660Z,44.40
2019-01-29T10:50:59.556Z,44.50
2019-01-29T10:53:29.624Z,44.70
2019-01-29T10:56:00.641Z,45.10
2019-01-29T10:58:30.646Z,45.40
2019-01-29T11:01:00.544Z,46.20
2019-01-29T11:03:30.702Z,46.70
2019-01-29T11:06:01.741Z,47.00
2019-01-29T11:08:31.740Z,48.20
2019-01-29T11:11:01.628Z,48.10
2019-01-29T11:13:31.608Z,48.70
2019-01-29T11:16:02.604Z,48.80
2019-01-29T11:18:32.590Z,47.70
2019-01-29T11:21:02.477Z,48.40
2019-01-29T11:23:36.628Z,48.10
2019-01-29T11:26:07.609Z,49.10
2019-01-29T11:28:37.611Z,49.50
2019-01-29T11:31:07.519Z,49.90
2019-01-29T11:33:37.583Z,49.70
2019-01-29T11:36:08.821Z,49.30
2019-01-29T11:38:39.146Z,50.20
2019-01-29T11:41:11.725Z,50.50
2019-01-29T11:43:41.947Z,49.80
2019-01-29T11:46:12.303Z,50.10
2019-01-29T11:51:23.569Z,49.30
2019-01-29T11:53:53.790Z,49.20
2019-01-29T11:56:23.741Z,49.00
2019-01-29T11:58:53.817Z,49.60
2019-01-29T12:01:23.941Z,50.00
2019-01-29T12:03:54.159Z,50.50
2019-01-29T12:06:27.749Z,49.40
2019-01-29T12:08:58.186Z,49.60
2019-01-29T12:11:29.872Z,49.70
2019-01-29T12:14:01.604Z,49.30
2019-01-29T12:16:32.849Z,48.90
2019-01-29T12:21:44.493Z,46.60
2019-01-29T12:24:19.880Z,47.00
2019-01-29T12:26:53.144Z,47.20
2019-01-29T12:29:23.765Z,47.30
2019-01-29T12:31:54.595Z,47.00
2019-01-29T12:34:45.676Z,47.20
2019-01-29T12:37:16.195Z,47.50
2019-01-29T12:39:48.261Z,47.20
2019-01-29T12:42:20.782Z,47.20
2019-01-29T12:47:32.545Z,47.40
2019-01-29T12:50:04.003Z,47.20
2019-01-29T12:52:46.650Z,47.10
2019-01-29T12:55:16.759Z,47.40
2019-01-29T12:57:46.759Z,47.30
2019-01-29T13:00:19.990Z,46.30
2019-01-29T13:02:49.851Z,46.90
2019-01-29T13:05:19.969Z,47.30
2019-01-29T13:07:50.020Z,48.50
2019-01-29T13:10:24.471Z,48.60
2019-01-29T13:12:54.355Z,49.00
2019-01-29T13:15:32.660Z,49.00
2019-01-29T13:18:02.901Z,48.60
2019-01-29T13:20:33.077Z,48.20
2019-01-29T13:23:03.096Z,48.50
2019-01-29T13:25:33.417Z,48.10
2019-01-29T13:28:03.412Z,48.40
2019-01-29T13:30:39.506Z,48.60
2019-01-29T13:33:11.558Z,49.10
2019-01-29T13:35:42.959Z,49.50
2019-01-29T13:38:12.819Z,49.30
2019-01-29T13:40:43.150Z,49.70
2019-01-29T13:43:13.105Z,49.60
2019-01-29T13:45:44.306Z,49.80
2019-01-29T13:48:14.247Z,49.90
2019-01-29T13:50:51.609Z,50.00
2019-01-29T13:53:23.676Z,49.90
2019-01-29T13:55:55.025Z,49.70
2019-01-29T13:58:25.450Z,50.00
2019-01-29T14:00:56.695Z,49.70
2019-01-29T14:03:26.919Z,49.20
2019-01-29T14:05:58.350Z,49.30
2019-01-29T14:08:28.515Z,48.20
2019-01-29T14:10:58.609Z,48.40
2019-01-29T14:13:28.660Z,49.30
2019-01-29T14:15:59.870Z,49.70
2019-01-29T14:18:29.889Z,50.10
2019-01-29T14:21:00.008Z,49.70
2019-01-29T14:23:30.212Z,50.30
2019-01-29T14:26:01.475Z,52.50
2019-01-29T14:28:31.594Z,53.00
2019-01-29T14:31:01.847Z,53.30
2019-01-29T14:33:31.935Z,52.80
2019-01-29T14:36:03.345Z,52.40
2019-01-29T14:38:51.216Z,51.90
2019-01-29T14:41:21.135Z,52.10
2019-01-29T14:43:52.186Z,51.90
2019-01-29T14:46:23.275Z,52.50
2019-01-29T14:48:53.443Z,53.40
2019-01-29T14:51:23.789Z,54.20
2019-01-29T14:53:53.917Z,54.60
2019-01-29T14:56:26.184Z,53.60
2019-01-29T14:58:56.377Z,53.80
2019-01-29T15:01:26.598Z,54.50
2019-01-29T15:03:56.510Z,53.50
2019-01-29T15:06:32.244Z,52.20
2019-01-29T15:08:58.660Z,52.20
2019-01-29T15:11:29.276Z,52.90
2019-01-29T15:13:59.374Z,53.30
2019-01-29T15:16:31.921Z,53.70
2019-01-29T15:19:11.678Z,54.50
2019-01-29T15:21:41.567Z,54.30
2019-01-29T15:24:11.323Z,54.20
2019-01-29T15:26:42.193Z,54.30
2019-01-29T15:29:11.955Z,54.70
2019-01-29T15:31:41.798Z,56.00
2019-01-29T15:34:11.615Z,55.90
2019-01-29T15:36:44.147Z,56.10
2019-01-29T15:39:13.986Z,56.40
2019-01-29T15:41:44.078Z,57.20
2019-01-29T15:44:15.163Z,57.90
2019-01-29T15:46:46.493Z,58.70
2019-01-29T15:49:16.684Z,59.10
2019-01-29T15:51:46.699Z,59.30
2019-01-29T15:54:16.924Z,59.70
2019-01-29T15:56:46.941Z,59.70
2019-01-29T15:59:17.372Z,60.00
2019-01-29T16:01:48.614Z,60.30
2019-01-29T16:04:19.303Z,60.70
2019-01-29T16:06:50.692Z,61.70
2019-01-29T16:09:20.841Z,61.20
2019-01-29T16:11:51.037Z,61.70
2019-01-29T16:14:21.477Z,62.20
2019-01-29T16:16:52.470Z,62.40
2019-01-29T16:19:22.623Z,62.50
2019-01-29T16:21:52.536Z,62.90
2019-01-29T16:24:23.064Z,62.90
2019-01-29T16:26:54.107Z,62.90
2019-01-29T16:29:24.459Z,62.80
2019-01-29T16:31:54.250Z,62.50
2019-01-29T16:34:24.126Z,63.40
2019-01-29T16:36:56.033Z,63.70
2019-01-29T16:39:25.984Z,62.70
2019-01-29T16:41:55.748Z,63.40
2019-01-29T16:44:26.660Z,63.70
2019-01-29T16:46:57.612Z,63.60
2019-01-29T16:49:27.454Z,63.80
2019-01-29T16:51:57.226Z,64.30
2019-01-29T16:54:27.087Z,64.30
2019-01-29T16:56:56.929Z,64.30
2019-01-29T16:59:26.802Z,64.60
2019-01-29T17:01:56.637Z,64.60
2019-01-29T17:04:28.331Z,64.30
2019-01-29T17:06:59.049Z,64.40
2019-01-29T17:09:28.905Z,64.60
2019-01-29T17:11:58.752Z,65.20
2019-01-29T17:14:28.544Z,65.50
2019-01-29T17:16:59.413Z,65.90
2019-01-29T17:19:29.209Z,66.10
2019-01-29T17:21:59.165Z,67.00
2019-01-29T17:24:28.936Z,68.40
2019-01-29T17:27:00.004Z,68.40
2019-01-29T17:29:29.777Z,69.20
2019-01-29T17:31:59.618Z,69.60
2019-01-29T17:34:29.392Z,69.90
2019-01-29T17:37:00.493Z,69.90
2019-01-29T17:39:30.285Z,69.90
2019-01-29T17:42:00.253Z,70.70
2019-01-29T17:44:31.746Z,71.30
2019-01-29T17:47:02.689Z,71.50
2019-01-29T17:49:32.492Z,71.80
2019-01-29T17:52:02.351Z,72.30
2019-01-29T17:54:33.183Z,72.40
2019-01-29T17:57:04.105Z,72.50
2019-01-29T17:59:33.880Z,72.60
2019-01-29T18:02:04.455Z,73.00
2019-01-29T18:04:34.321Z,73.60
2019-01-29T18:07:05.306Z,73.90
2019-01-29T18:09:35.075Z,73.70
2019-01-29T18:12:04.911Z,73.30
2019-01-29T18:14:34.862Z,73.70
2019-01-29T18:17:05.707Z,72.70
2019-01-29T18:19:35.778Z,72.20
2019-01-29T18:22:05.536Z,72.00
2019-01-29T18:24:35.420Z,72.10
2019-01-29T18:27:06.264Z,72.00
2019-01-29T18:29:36.178Z,72.10
2019-01-29T18:32:07.077Z,71.80
2019-01-29T18:34:37.056Z,71.80
2019-01-29T18:37:08.031Z,72.50
2019-01-29T18:39:37.975Z,72.90
2019-01-29T18:42:07.790Z,72.80
2019-01-29T18:44:38.580Z,72.60
2019-01-29T18:47:09.477Z,72.50
2019-01-29T18:49:39.350Z,72.90
2019-01-29T18:52:09.117Z,73.20
2019-01-29T18:54:38.959Z,73.50
2019-01-29T18:57:10.868Z,73.40
2019-01-29T18:59:40.661Z,73.50
2019-01-29T19:02:10.527Z,73.60
2019-01-29T19:04:40.331Z,73.40
2019-01-29T19:07:10.526Z,73.60
2019-01-29T19:09:52.916Z,74.20
2019-01-29T19:12:23.118Z,74.40
2019-01-29T19:14:52.992Z,74.60
2019-01-29T19:17:24.125Z,74.40
2019-01-29T19:19:56.289Z,74.70
2019-01-29T19:22:27.706Z,75.20
2019-01-29T19:24:57.718Z,75.40
2019-01-29T19:27:27.637Z,75.80
2019-01-29T19:29:57.406Z,75.90
2019-01-29T19:32:27.346Z,76.20
2019-01-29T19:34:57.129Z,76.10
2019-01-29T19:37:28.238Z,76.10
2019-01-29T19:39:58.077Z,75.70
2019-01-29T19:42:30.463Z,75.70
2019-01-29T19:45:04.557Z,75.70
2019-01-29T19:47:35.970Z,75.80
2019-01-29T19:53:09.454Z,76.40
2019-01-29T19:55:41.826Z,76.50
2019-01-29T19:58:12.451Z,76.70
2019-01-29T20:00:42.798Z,77.10
2019-01-29T20:03:12.976Z,77.50
2019-01-29T20:05:44.160Z,77.50
2019-01-29T20:08:14.385Z,77.70
2019-01-29T20:10:44.574Z,78.00
2019-01-29T20:13:15.002Z,78.10
2019-01-29T20:15:46.884Z,78.00
2019-01-29T20:18:36.639Z,78.60
2019-01-29T20:21:07.065Z,78.00
2019-01-29T20:23:37.493Z,78.00
2019-01-29T20:26:07.816Z,79.00
2019-01-29T20:28:42.575Z,78.30
2019-01-29T20:31:09.945Z,78.20
2019-01-29T20:33:40.428Z,78.00
2019-01-29T20:36:11.964Z,78.00
2019-01-29T20:38:42.561Z,77.60
2019-01-29T20:41:13.342Z,77.70
2019-01-29T20:43:44.591Z,77.70
2019-01-29T20:46:16.146Z,77.90
2019-01-29T20:48:47.060Z,77.90
2019-01-29T20:51:17.374Z,77.80
2019-01-29T20:53:47.527Z,78.30
2019-01-29T20:56:59.675Z,78.10
2019-01-29T21:02:09.700Z,79.60
2019-01-29T21:04:41.433Z,80.00
2019-01-29T21:07:11.579Z,80.40
2019-01-29T21:09:42.017Z,80.70
2019-01-29T21:12:12.022Z,81.00
2019-01-29T21:14:42.448Z,81.20
2019-01-29T21:17:13.593Z,81.80
2019-01-29T21:19:43.770Z,82.30
2019-01-29T21:22:15.091Z,81.80
2019-01-29T21:24:46.054Z,81.40
2019-01-29T21:27:28.990Z,81.80
2019-01-29T21:30:01.725Z,82.10
2019-01-29T21:32:32.022Z,82.30
2019-01-29T21:37:58.069Z,82.70
2019-01-29T21:40:30.345Z,82.50
2019-01-29T21:43:01.954Z,83.70
2019-01-29T21:45:32.996Z,82.80
2019-01-29T21:48:03.283Z,83.10
2019-01-29T21:50:34.926Z,83.20
2019-01-29T21:53:05.029Z,83.60
2019-01-29T21:55:35.697Z,84.20
2019-01-29T21:58:06.052Z,84.80
2019-01-29T22:00:41.535Z,84.20
2019-01-29T22:03:11.736Z,84.30
2019-01-29T22:05:42.501Z,84.00
2019-01-29T22:08:12.949Z,84.10
2019-01-29T22:10:43.344Z,84.40
2019-01-29T22:13:13.713Z,84.30
2019-01-29T22:15:43.717Z,83.90
2019-01-29T22:18:13.962Z,83.70
2019-01-29T22:23:39.641Z,83.20
2019-01-29T22:26:10.890Z,83.10
2019-01-29T22:28:41.034Z,83.30
2019-01-29T22:31:11.332Z,83.40
2019-01-29T22:33:41.248Z,83.90
2019-01-29T22:36:11.469Z,84.30
2019-01-29T22:38:41.793Z,84.60
2019-01-29T22:41:12.015Z,84.50
2019-01-29T22:43:42.271Z,83.80
2019-01-29T22:48:59.460Z,83.80
2019-01-29T22:51:31.213Z,83.90
2019-01-29T22:54:01.249Z,84.00
2019-01-29T22:56:31.182Z,84.40
2019-01-29T22:59:01.042Z,84.20
2019-01-29T23:01:31.953Z,83.80
2019-01-29T23:04:02.396Z,84.30
2019-01-29T23:06:36.631Z,84.00
2019-01-29T23:09:09.510Z,84.50
2019-01-29T23:11:39.553Z,85.10
2019-01-29T23:14:09.417Z,85.30
2019-01-29T23:16:40.282Z,85.00
2019-01-29T23:19:10.055Z,85.00
2019-01-29T23:21:39.900Z,85.30
2019-01-29T23:24:09.715Z,86.00
2019-01-29T23:26:40.549Z,86.20
2019-01-29T23:29:10.512Z,86.60
2019-01-29T23:31:40.287Z,87.00
2019-01-29T23:34:10.142Z,87.20
2019-01-29T23:36:40.942Z,87.40
2019-01-29T23:39:12.412Z,87.20
2019-01-29T23:41:42.633Z,87.50
2019-01-29T23:44:12.510Z,87.70
2019-01-29T23:46:44.420Z,87.80
2019-01-29T23:49:14.290Z,87.70
2019-01-29T23:51:45.157Z,87.60
2019-01-29T23:54:15.036Z,87.60
2019-01-29T23:56:46.030Z,88.00
2019-01-29T23:59:15.939Z,88.20
